N242EA KSQL-KLGB
Flight info
| Callsign | N242EA |
|---|---|
| Flight time | 1h 16m |
| Altitude | 31000 |
| Route | OSI EUGEN V27 BSR PRB LAX |
| Aircraft | SF50/L-BDGRSWY/LB2U2 |
Departure
| Time | 2026-04-29 16:03 |
|---|---|
| Airport | San Carlos Airport (KSQL) |
Arrival
| Time | 2026-04-29 17:20 |
|---|---|
| Airport | Long Beach International Airport (KLGB) |
| Time | Latitude | Longitude | Altitude | Speed | Heading |
|---|---|---|---|---|---|
| 2026-04-29 15:45 | 37.51147 | -122.25055 | 5 ft | 0 kts | 138° |
| 2026-04-29 15:59 | 37.51146 | -122.25054 | 5 ft | 1 kts | 138° |
| 2026-04-29 16:00 | 37.51144 | -122.25033 | 5 ft | 7 kts | 49° |
| 2026-04-29 16:00 | 37.51135 | -122.24993 | 5 ft | 6 kts | 136° |
| 2026-04-29 16:00 | 37.51104 | -122.24959 | 6 ft | 6 kts | 139° |
| 2026-04-29 16:00 | 37.51076 | -122.24927 | 7 ft | 5 kts | 137° |
| 2026-04-29 16:01 | 37.51044 | -122.24890 | 7 ft | 9 kts | 138° |
| 2026-04-29 16:01 | 37.50972 | -122.24809 | 6 ft | 17 kts | 138° |
| 2026-04-29 16:01 | 37.50945 | -122.24748 | 4 ft | 6 kts | 135° |
| 2026-04-29 16:01 | 37.50913 | -122.24710 | 4 ft | 7 kts | 136° |
| 2026-04-29 16:02 | 37.50918 | -122.24672 | 3 ft | 4 kts | 31° |
| 2026-04-29 16:02 | 37.50940 | -122.24676 | 3 ft | 3 kts | 323° |
| 2026-04-29 16:02 | 37.50955 | -122.24694 | 3 ft | 1 kts | 317° |
| 2026-04-29 16:03 | 37.50970 | -122.24711 | 4 ft | 20 kts | 318° |
| 2026-04-29 16:03 | 37.51247 | -122.25024 | 5 ft | 85 kts | 318° |
| 2026-04-29 16:03 | 37.51730 | -122.25640 | 306 ft | 102 kts | 292° |
| 2026-04-29 16:03 | 37.51502 | -122.26469 | 701 ft | 108 kts | 230° |
| 2026-04-29 16:04 | 37.51012 | -122.27196 | 1159 ft | 116 kts | 229° |
| 2026-04-29 16:04 | 37.50450 | -122.27965 | 1436 ft | 127 kts | 226° |
| 2026-04-29 16:04 | 37.49810 | -122.28759 | 1713 ft | 129 kts | 224° |
| 2026-04-29 16:04 | 37.49120 | -122.29541 | 1922 ft | 136 kts | 222° |
| 2026-04-29 16:05 | 37.48360 | -122.30358 | 2169 ft | 151 kts | 221° |
| 2026-04-29 16:05 | 37.47563 | -122.31215 | 2603 ft | 151 kts | 224° |
| 2026-04-29 16:05 | 37.46721 | -122.32076 | 2896 ft | 160 kts | 222° |
| 2026-04-29 16:05 | 37.45919 | -122.33010 | 3396 ft | 158 kts | 225° |
| 2026-04-29 16:06 | 37.45080 | -122.34033 | 3522 ft | 176 kts | 226° |
| 2026-04-29 16:06 | 37.44200 | -122.35161 | 3622 ft | 183 kts | 229° |
| 2026-04-29 16:06 | 37.43335 | -122.36371 | 3661 ft | 194 kts | 231° |
| 2026-04-29 16:06 | 37.42464 | -122.37673 | 3892 ft | 193 kts | 231° |
| 2026-04-29 16:07 | 37.41609 | -122.38982 | 4100 ft | 195 kts | 234° |
| 2026-04-29 16:07 | 37.41060 | -122.39907 | 4046 ft | 202 kts | 233° |
| 2026-04-29 16:07 | 37.39428 | -122.41153 | 3755 ft | 211 kts | 184° |
| 2026-04-29 16:07 | 37.37994 | -122.40874 | 3663 ft | 202 kts | 168° |
| 2026-04-29 16:08 | 37.36651 | -122.40568 | 3649 ft | 194 kts | 171° |
| 2026-04-29 16:08 | 37.35322 | -122.40409 | 3509 ft | 192 kts | 175° |
| 2026-04-29 16:08 | 37.33961 | -122.40261 | 3193 ft | 199 kts | 176° |
| 2026-04-29 16:08 | 37.32609 | -122.40277 | 3176 ft | 190 kts | 183° |
| 2026-04-29 16:09 | 37.31326 | -122.40417 | 3196 ft | 182 kts | 187° |
| 2026-04-29 16:09 | 37.30082 | -122.40636 | 3154 ft | 180 kts | 189° |
| 2026-04-29 16:09 | 37.28831 | -122.40872 | 3022 ft | 183 kts | 189° |
| 2026-04-29 16:09 | 37.27576 | -122.41116 | 2974 ft | 180 kts | 190° |
| 2026-04-29 16:10 | 37.26338 | -122.41381 | 2867 ft | 182 kts | 190° |
| 2026-04-29 16:10 | 37.25118 | -122.41792 | 2804 ft | 184 kts | 199° |
| 2026-04-29 16:10 | 37.23864 | -122.42135 | 3479 ft | 178 kts | 188° |
| 2026-04-29 16:10 | 37.22633 | -122.42320 | 4019 ft | 182 kts | 186° |
| 2026-04-29 16:11 | 37.21370 | -122.42518 | 4578 ft | 184 kts | 186° |
| 2026-04-29 16:11 | 37.20096 | -122.42717 | 5157 ft | 184 kts | 186° |
| 2026-04-29 16:11 | 37.18818 | -122.42918 | 5662 ft | 187 kts | 186° |
| 2026-04-29 16:11 | 37.17519 | -122.43122 | 6195 ft | 190 kts | 186° |
| 2026-04-29 16:12 | 37.16206 | -122.43329 | 6735 ft | 190 kts | 187° |
| 2026-04-29 16:12 | 37.15330 | -122.43468 | 7062 ft | 192 kts | 187° |
| 2026-04-29 16:12 | 37.13553 | -122.43749 | 7730 ft | 194 kts | 188° |
| 2026-04-29 16:12 | 37.12668 | -122.43890 | 8057 ft | 194 kts | 188° |
| 2026-04-29 16:13 | 37.11314 | -122.44106 | 8542 ft | 196 kts | 188° |
| 2026-04-29 16:13 | 37.09955 | -122.44242 | 9029 ft | 198 kts | 176° |
| 2026-04-29 16:13 | 37.08636 | -122.43739 | 9522 ft | 200 kts | 152° |
| 2026-04-29 16:13 | 37.07489 | -122.42751 | 9990 ft | 202 kts | 143° |
| 2026-04-29 16:14 | 37.06339 | -122.41728 | 10438 ft | 203 kts | 144° |
| 2026-04-29 16:14 | 37.05181 | -122.40711 | 10881 ft | 204 kts | 144° |
| 2026-04-29 16:14 | 37.04016 | -122.39673 | 11302 ft | 206 kts | 144° |
| 2026-04-29 16:14 | 37.03463 | -122.39181 | 11504 ft | 207 kts | 144° |
| 2026-04-29 16:15 | 37.02284 | -122.38133 | 11938 ft | 209 kts | 143° |
| 2026-04-29 16:15 | 37.01100 | -122.37074 | 12384 ft | 210 kts | 143° |
| 2026-04-29 16:15 | 36.99904 | -122.36008 | 12803 ft | 212 kts | 143° |
| 2026-04-29 16:15 | 36.98707 | -122.34947 | 13295 ft | 210 kts | 144° |
| 2026-04-29 16:16 | 36.97632 | -122.33995 | 13714 ft | 209 kts | 144° |
| 2026-04-29 16:16 | 36.96485 | -122.32972 | 14107 ft | 211 kts | 143° |
| 2026-04-29 16:16 | 36.95279 | -122.31904 | 14468 ft | 213 kts | 143° |
| 2026-04-29 16:16 | 36.94070 | -122.30829 | 14821 ft | 215 kts | 143° |
| 2026-04-29 16:17 | 36.92841 | -122.29738 | 15173 ft | 217 kts | 143° |
| 2026-04-29 16:17 | 36.91618 | -122.28652 | 15506 ft | 219 kts | 143° |
| 2026-04-29 16:17 | 36.90373 | -122.27546 | 15849 ft | 221 kts | 143° |
| 2026-04-29 16:17 | 36.89106 | -122.26424 | 16190 ft | 224 kts | 143° |
| 2026-04-29 16:18 | 36.87832 | -122.25293 | 16521 ft | 226 kts | 143° |
| 2026-04-29 16:18 | 36.86543 | -122.24152 | 16850 ft | 228 kts | 143° |
| 2026-04-29 16:18 | 36.85247 | -122.23006 | 17189 ft | 229 kts | 142° |
| 2026-04-29 16:18 | 36.83938 | -122.21847 | 17509 ft | 231 kts | 143° |
| 2026-04-29 16:19 | 36.82617 | -122.20681 | 17830 ft | 233 kts | 142° |
| 2026-04-29 16:19 | 36.81286 | -122.19503 | 18147 ft | 235 kts | 142° |
| 2026-04-29 16:19 | 36.79948 | -122.18323 | 18450 ft | 237 kts | 142° |
| 2026-04-29 16:19 | 36.78596 | -122.17126 | 18719 ft | 239 kts | 142° |
| 2026-04-29 16:20 | 36.77237 | -122.15926 | 18987 ft | 240 kts | 142° |
| 2026-04-29 16:20 | 36.75885 | -122.14732 | 19249 ft | 242 kts | 142° |
| 2026-04-29 16:20 | 36.74510 | -122.13517 | 19512 ft | 243 kts | 142° |
| 2026-04-29 16:20 | 36.73121 | -122.12294 | 19772 ft | 245 kts | 143° |
| 2026-04-29 16:21 | 36.71728 | -122.11066 | 20034 ft | 246 kts | 142° |
| 2026-04-29 16:21 | 36.70331 | -122.09818 | 20285 ft | 248 kts | 142° |
| 2026-04-29 16:21 | 36.68923 | -122.08580 | 20569 ft | 248 kts | 143° |
| 2026-04-29 16:21 | 36.67506 | -122.07338 | 20824 ft | 249 kts | 143° |
| 2026-04-29 16:22 | 36.66080 | -122.06081 | 21042 ft | 252 kts | 143° |
| 2026-04-29 16:22 | 36.64641 | -122.04818 | 21297 ft | 254 kts | 143° |
| 2026-04-29 16:22 | 36.63193 | -122.03543 | 21539 ft | 255 kts | 143° |
| 2026-04-29 16:22 | 36.61740 | -122.02267 | 21780 ft | 257 kts | 143° |
| 2026-04-29 16:23 | 36.60277 | -122.00980 | 22018 ft | 258 kts | 143° |
| 2026-04-29 16:23 | 36.58805 | -121.99687 | 22255 ft | 259 kts | 143° |
| 2026-04-29 16:23 | 36.57329 | -121.98391 | 22481 ft | 261 kts | 143° |
| 2026-04-29 16:23 | 36.55842 | -121.97085 | 22705 ft | 262 kts | 143° |
| 2026-04-29 16:24 | 36.54368 | -121.95794 | 22922 ft | 263 kts | 143° |
| 2026-04-29 16:24 | 36.52868 | -121.94481 | 23180 ft | 262 kts | 143° |
| 2026-04-29 16:24 | 36.51373 | -121.93167 | 23407 ft | 263 kts | 143° |
| 2026-04-29 16:24 | 36.49881 | -121.91843 | 23619 ft | 265 kts | 143° |
| 2026-04-29 16:25 | 36.48380 | -121.90509 | 23811 ft | 266 kts | 143° |
| 2026-04-29 16:25 | 36.46869 | -121.89171 | 24000 ft | 266 kts | 143° |
| 2026-04-29 16:25 | 36.45360 | -121.87831 | 24184 ft | 267 kts | 143° |
| 2026-04-29 16:25 | 36.43839 | -121.86498 | 24343 ft | 268 kts | 143° |
| 2026-04-29 16:26 | 36.42304 | -121.85172 | 24524 ft | 268 kts | 143° |
| 2026-04-29 16:26 | 36.40775 | -121.83847 | 24696 ft | 269 kts | 143° |
| 2026-04-29 16:26 | 36.39242 | -121.82510 | 24865 ft | 269 kts | 143° |
| 2026-04-29 16:26 | 36.37709 | -121.81176 | 25031 ft | 270 kts | 143° |
| 2026-04-29 16:27 | 36.36169 | -121.79839 | 25212 ft | 269 kts | 144° |
| 2026-04-29 16:27 | 36.34633 | -121.78504 | 25358 ft | 270 kts | 143° |
| 2026-04-29 16:27 | 36.33087 | -121.77160 | 25508 ft | 271 kts | 143° |
| 2026-04-29 16:27 | 36.31563 | -121.75842 | 25653 ft | 271 kts | 142° |
| 2026-04-29 16:28 | 36.30015 | -121.74498 | 25817 ft | 272 kts | 142° |
| 2026-04-29 16:28 | 36.28464 | -121.73154 | 25949 ft | 273 kts | 142° |
| 2026-04-29 16:28 | 36.26901 | -121.71805 | 26090 ft | 273 kts | 142° |
| 2026-04-29 16:28 | 36.25344 | -121.70457 | 26222 ft | 273 kts | 142° |
| 2026-04-29 16:29 | 36.23789 | -121.69100 | 26368 ft | 274 kts | 142° |
| 2026-04-29 16:29 | 36.22225 | -121.67751 | 26504 ft | 275 kts | 142° |
| 2026-04-29 16:29 | 36.20654 | -121.66398 | 26655 ft | 275 kts | 142° |
| 2026-04-29 16:29 | 36.19087 | -121.65034 | 26797 ft | 275 kts | 140° |
| 2026-04-29 16:30 | 36.17750 | -121.63381 | 26918 ft | 271 kts | 122° |
| 2026-04-29 16:30 | 36.16752 | -121.61423 | 27062 ft | 268 kts | 116° |
| 2026-04-29 16:30 | 36.15781 | -121.59445 | 27212 ft | 269 kts | 116° |
| 2026-04-29 16:30 | 36.14798 | -121.57474 | 27360 ft | 269 kts | 116° |
| 2026-04-29 16:31 | 36.13829 | -121.55520 | 27509 ft | 270 kts | 116° |
| 2026-04-29 16:31 | 36.12839 | -121.53515 | 27669 ft | 270 kts | 116° |
| 2026-04-29 16:31 | 36.11869 | -121.51557 | 27808 ft | 271 kts | 116° |
| 2026-04-29 16:31 | 36.10880 | -121.49559 | 27890 ft | 273 kts | 116° |
| 2026-04-29 16:32 | 36.09882 | -121.47555 | 28047 ft | 273 kts | 116° |
| 2026-04-29 16:32 | 36.08887 | -121.45551 | 28176 ft | 274 kts | 116° |
| 2026-04-29 16:32 | 36.07887 | -121.43541 | 28321 ft | 274 kts | 116° |
| 2026-04-29 16:32 | 36.06887 | -121.41528 | 28463 ft | 275 kts | 116° |
| 2026-04-29 16:33 | 36.04885 | -121.37507 | 28769 ft | 274 kts | 116° |
| 2026-04-29 16:33 | 36.03887 | -121.35499 | 28908 ft | 275 kts | 116° |
| 2026-04-29 16:33 | 36.02884 | -121.33486 | 29015 ft | 276 kts | 116° |
| 2026-04-29 16:34 | 36.01877 | -121.31462 | 29145 ft | 276 kts | 116° |
| 2026-04-29 16:34 | 36.00872 | -121.29448 | 29277 ft | 276 kts | 116° |
| 2026-04-29 16:34 | 35.99860 | -121.27422 | 29412 ft | 276 kts | 116° |
| 2026-04-29 16:34 | 35.98853 | -121.25406 | 29549 ft | 277 kts | 116° |
| 2026-04-29 16:35 | 35.97843 | -121.23379 | 29660 ft | 278 kts | 116° |
| 2026-04-29 16:35 | 35.96821 | -121.21333 | 29758 ft | 280 kts | 116° |
| 2026-04-29 16:35 | 35.95796 | -121.19289 | 29898 ft | 280 kts | 117° |
| 2026-04-29 16:35 | 35.94769 | -121.17241 | 30027 ft | 281 kts | 116° |
| 2026-04-29 16:36 | 35.93741 | -121.15188 | 30143 ft | 281 kts | 116° |
| 2026-04-29 16:36 | 35.92725 | -121.13159 | 30259 ft | 281 kts | 117° |
| 2026-04-29 16:36 | 35.91699 | -121.11116 | 30420 ft | 279 kts | 117° |
| 2026-04-29 16:36 | 35.90672 | -121.09072 | 30513 ft | 280 kts | 117° |
| 2026-04-29 16:37 | 35.89642 | -121.07018 | 30615 ft | 281 kts | 117° |
| 2026-04-29 16:37 | 35.88615 | -121.04971 | 30726 ft | 281 kts | 117° |
| 2026-04-29 16:37 | 35.87578 | -121.02912 | 30842 ft | 282 kts | 117° |
| 2026-04-29 16:37 | 35.86893 | -121.01548 | 30918 ft | 282 kts | 117° |
| 2026-04-29 16:38 | 35.85505 | -120.98781 | 30994 ft | 287 kts | 117° |
| 2026-04-29 16:38 | 35.84446 | -120.96677 | 31017 ft | 292 kts | 117° |
| 2026-04-29 16:38 | 35.83376 | -120.94556 | 31174 ft | 292 kts | 117° |
| 2026-04-29 16:38 | 35.82296 | -120.92412 | 31179 ft | 297 kts | 117° |
| 2026-04-29 16:39 | 35.80085 | -120.88031 | 31193 ft | 305 kts | 118° |
| 2026-04-29 16:39 | 35.77829 | -120.83566 | 31191 ft | 312 kts | 118° |
| 2026-04-29 16:40 | 35.75510 | -120.78989 | 31198 ft | 317 kts | 118° |
| 2026-04-29 16:40 | 35.73160 | -120.74353 | 31207 ft | 321 kts | 119° |
| 2026-04-29 16:41 | 35.70790 | -120.69678 | 31210 ft | 323 kts | 119° |
| 2026-04-29 16:41 | 35.68413 | -120.65002 | 31208 ft | 322 kts | 119° |
| 2026-04-29 16:42 | 35.65700 | -120.60700 | 31201 ft | 322 kts | 131° |
| 2026-04-29 16:42 | 35.62659 | -120.56729 | 31198 ft | 321 kts | 131° |
| 2026-04-29 16:43 | 35.59581 | -120.52724 | 31196 ft | 323 kts | 131° |
| 2026-04-29 16:43 | 35.56487 | -120.48707 | 31192 ft | 324 kts | 131° |
| 2026-04-29 16:44 | 35.53384 | -120.44680 | 31185 ft | 325 kts | 131° |
| 2026-04-29 16:44 | 35.50275 | -120.40651 | 31177 ft | 325 kts | 131° |
| 2026-04-29 16:45 | 35.47170 | -120.36628 | 31164 ft | 324 kts | 133° |
| 2026-04-29 16:45 | 35.44067 | -120.32618 | 31151 ft | 323 kts | 133° |
| 2026-04-29 16:46 | 35.40977 | -120.28625 | 31149 ft | 323 kts | 133° |
| 2026-04-29 16:46 | 35.37883 | -120.24631 | 31145 ft | 322 kts | 133° |
| 2026-04-29 16:47 | 35.34797 | -120.20655 | 31149 ft | 322 kts | 133° |
| 2026-04-29 16:47 | 35.31711 | -120.16687 | 31140 ft | 320 kts | 134° |
| 2026-04-29 16:48 | 35.28667 | -120.12773 | 31130 ft | 320 kts | 134° |
| 2026-04-29 16:48 | 35.25559 | -120.08785 | 31140 ft | 323 kts | 134° |
| 2026-04-29 16:49 | 35.22440 | -120.04784 | 31140 ft | 326 kts | 134° |
| 2026-04-29 16:49 | 35.19331 | -120.00797 | 31144 ft | 325 kts | 134° |
| 2026-04-29 16:50 | 35.17806 | -119.98834 | 31322 ft | 311 kts | 135° |
| 2026-04-29 16:50 | 35.16276 | -119.96905 | 31086 ft | 318 kts | 136° |
| 2026-04-29 16:50 | 35.13239 | -119.93000 | 31126 ft | 319 kts | 135° |
| 2026-04-29 16:51 | 35.10161 | -119.89079 | 31127 ft | 322 kts | 135° |
| 2026-04-29 16:51 | 35.07060 | -119.85124 | 31129 ft | 322 kts | 135° |
| 2026-04-29 16:52 | 35.03956 | -119.81174 | 31134 ft | 323 kts | 136° |
| 2026-04-29 16:52 | 35.00830 | -119.77197 | 31125 ft | 325 kts | 136° |
| 2026-04-29 16:53 | 34.97708 | -119.73231 | 31119 ft | 321 kts | 137° |
| 2026-04-29 16:53 | 34.94627 | -119.69322 | 31108 ft | 320 kts | 137° |
| 2026-04-29 16:54 | 34.91534 | -119.65398 | 31112 ft | 322 kts | 137° |
| 2026-04-29 16:54 | 34.88443 | -119.61484 | 31075 ft | 323 kts | 137° |
| 2026-04-29 16:55 | 34.86865 | -119.59490 | 30745 ft | 328 kts | 137° |
| 2026-04-29 16:55 | 34.85288 | -119.57496 | 30324 ft | 325 kts | 136° |
| 2026-04-29 16:55 | 34.83735 | -119.55529 | 29859 ft | 319 kts | 136° |
| 2026-04-29 16:55 | 34.82215 | -119.53609 | 29426 ft | 312 kts | 137° |
| 2026-04-29 16:56 | 34.80709 | -119.51716 | 29013 ft | 311 kts | 137° |
| 2026-04-29 16:56 | 34.79199 | -119.49810 | 28603 ft | 314 kts | 137° |
| 2026-04-29 16:56 | 34.77674 | -119.47887 | 28191 ft | 317 kts | 137° |
| 2026-04-29 16:56 | 34.76132 | -119.45945 | 27768 ft | 319 kts | 137° |
| 2026-04-29 16:57 | 34.75109 | -119.44660 | 27493 ft | 319 kts | 137° |
| 2026-04-29 16:57 | 34.73565 | -119.42714 | 27070 ft | 321 kts | 137° |
| 2026-04-29 16:57 | 34.72018 | -119.40763 | 26643 ft | 321 kts | 137° |
| 2026-04-29 16:57 | 34.70463 | -119.38809 | 26222 ft | 321 kts | 137° |
| 2026-04-29 16:58 | 34.68904 | -119.36852 | 25790 ft | 322 kts | 137° |
| 2026-04-29 16:58 | 34.67346 | -119.34897 | 25365 ft | 323 kts | 137° |
| 2026-04-29 16:58 | 34.65780 | -119.32933 | 24944 ft | 324 kts | 137° |
| 2026-04-29 16:58 | 34.64211 | -119.30962 | 24515 ft | 324 kts | 137° |
| 2026-04-29 16:59 | 34.62642 | -119.28996 | 24080 ft | 325 kts | 137° |
| 2026-04-29 16:59 | 34.61063 | -119.27016 | 23637 ft | 326 kts | 137° |
| 2026-04-29 16:59 | 34.59496 | -119.25037 | 23173 ft | 325 kts | 137° |
| 2026-04-29 16:59 | 34.57913 | -119.23074 | 22745 ft | 327 kts | 138° |
| 2026-04-29 17:00 | 34.56319 | -119.21090 | 22303 ft | 328 kts | 137° |
| 2026-04-29 17:00 | 34.54734 | -119.19099 | 21876 ft | 328 kts | 138° |
| 2026-04-29 17:00 | 34.53145 | -119.17109 | 21442 ft | 329 kts | 138° |
| 2026-04-29 17:00 | 34.51547 | -119.15115 | 21006 ft | 329 kts | 138° |
| 2026-04-29 17:01 | 34.49949 | -119.13125 | 20569 ft | 330 kts | 138° |
| 2026-04-29 17:01 | 34.48348 | -119.11129 | 20127 ft | 330 kts | 138° |
| 2026-04-29 17:01 | 34.46741 | -119.09125 | 19693 ft | 332 kts | 138° |
| 2026-04-29 17:01 | 34.45132 | -119.07119 | 19263 ft | 332 kts | 138° |
| 2026-04-29 17:02 | 34.43520 | -119.05116 | 18822 ft | 333 kts | 138° |
| 2026-04-29 17:02 | 34.41900 | -119.03101 | 18381 ft | 334 kts | 138° |
| 2026-04-29 17:02 | 34.40282 | -119.01087 | 17901 ft | 332 kts | 138° |
| 2026-04-29 17:02 | 34.38660 | -118.99085 | 17371 ft | 333 kts | 137° |
| 2026-04-29 17:03 | 34.37046 | -118.97068 | 16925 ft | 334 kts | 137° |
| 2026-04-29 17:03 | 34.35422 | -118.95045 | 16491 ft | 336 kts | 137° |
| 2026-04-29 17:03 | 34.33779 | -118.93011 | 16043 ft | 338 kts | 137° |
| 2026-04-29 17:03 | 34.32145 | -118.90987 | 15591 ft | 334 kts | 137° |
| 2026-04-29 17:04 | 34.30536 | -118.88990 | 15152 ft | 330 kts | 137° |
| 2026-04-29 17:04 | 34.28942 | -118.87018 | 14721 ft | 327 kts | 137° |
| 2026-04-29 17:04 | 34.27356 | -118.85056 | 14290 ft | 325 kts | 137° |
| 2026-04-29 17:04 | 34.25784 | -118.83113 | 13859 ft | 323 kts | 136° |
| 2026-04-29 17:05 | 34.24215 | -118.81172 | 13404 ft | 321 kts | 136° |
| 2026-04-29 17:05 | 34.22699 | -118.79297 | 12988 ft | 300 kts | 136° |
| 2026-04-29 17:05 | 34.21306 | -118.77573 | 12603 ft | 273 kts | 137° |
| 2026-04-29 17:05 | 34.20025 | -118.75994 | 12255 ft | 255 kts | 137° |
| 2026-04-29 17:06 | 34.18804 | -118.74495 | 11929 ft | 249 kts | 137° |
| 2026-04-29 17:06 | 34.17593 | -118.73003 | 11605 ft | 249 kts | 136° |
| 2026-04-29 17:06 | 34.16382 | -118.71504 | 11279 ft | 249 kts | 136° |
| 2026-04-29 17:06 | 34.15188 | -118.70035 | 10954 ft | 247 kts | 136° |
| 2026-04-29 17:07 | 34.13972 | -118.68533 | 10623 ft | 246 kts | 136° |
| 2026-04-29 17:07 | 34.12788 | -118.67079 | 10305 ft | 246 kts | 136° |
| 2026-04-29 17:07 | 34.11593 | -118.65609 | 9980 ft | 245 kts | 136° |
| 2026-04-29 17:07 | 34.10402 | -118.64156 | 9632 ft | 241 kts | 137° |
| 2026-04-29 17:08 | 34.09219 | -118.62723 | 9313 ft | 240 kts | 136° |
| 2026-04-29 17:08 | 34.08068 | -118.61280 | 9003 ft | 238 kts | 136° |
| 2026-04-29 17:08 | 34.06913 | -118.59857 | 8687 ft | 237 kts | 136° |
| 2026-04-29 17:08 | 34.05758 | -118.58442 | 8374 ft | 236 kts | 136° |
| 2026-04-29 17:09 | 34.04613 | -118.57035 | 8071 ft | 234 kts | 135° |
| 2026-04-29 17:09 | 34.03472 | -118.55636 | 7755 ft | 232 kts | 135° |
| 2026-04-29 17:09 | 34.02346 | -118.54258 | 7451 ft | 230 kts | 135° |
| 2026-04-29 17:09 | 34.01230 | -118.52889 | 7149 ft | 229 kts | 135° |
| 2026-04-29 17:10 | 34.00128 | -118.51539 | 6851 ft | 228 kts | 135° |
| 2026-04-29 17:10 | 33.99022 | -118.50185 | 6552 ft | 226 kts | 134° |
| 2026-04-29 17:10 | 33.97923 | -118.48840 | 6239 ft | 224 kts | 134° |
| 2026-04-29 17:10 | 33.96838 | -118.47510 | 5939 ft | 222 kts | 133° |
| 2026-04-29 17:11 | 33.95758 | -118.46191 | 5647 ft | 219 kts | 133° |
| 2026-04-29 17:11 | 33.94693 | -118.44887 | 5357 ft | 218 kts | 133° |
| 2026-04-29 17:11 | 33.93643 | -118.43594 | 5075 ft | 217 kts | 131° |
| 2026-04-29 17:11 | 33.92875 | -118.42066 | 5000 ft | 209 kts | 111° |
| 2026-04-29 17:12 | 33.92283 | -118.40452 | 4996 ft | 213 kts | 113° |
| 2026-04-29 17:12 | 33.91645 | -118.38830 | 5000 ft | 214 kts | 113° |
| 2026-04-29 17:12 | 33.91017 | -118.37181 | 4878 ft | 218 kts | 112° |
| 2026-04-29 17:12 | 33.90604 | -118.36088 | 4755 ft | 215 kts | 112° |
| 2026-04-29 17:13 | 33.89800 | -118.33894 | 4515 ft | 213 kts | 112° |
| 2026-04-29 17:13 | 33.89205 | -118.32260 | 4337 ft | 213 kts | 112° |
| 2026-04-29 17:13 | 33.88626 | -118.30648 | 4163 ft | 213 kts | 112° |
| 2026-04-29 17:13 | 33.88047 | -118.29011 | 3990 ft | 213 kts | 112° |
| 2026-04-29 17:14 | 33.87467 | -118.27382 | 3816 ft | 212 kts | 112° |
| 2026-04-29 17:14 | 33.86889 | -118.25755 | 3629 ft | 211 kts | 113° |
| 2026-04-29 17:14 | 33.86029 | -118.24330 | 3389 ft | 212 kts | 135° |
| 2026-04-29 17:14 | 33.84912 | -118.23180 | 3163 ft | 210 kts | 139° |
| 2026-04-29 17:15 | 33.83843 | -118.21990 | 2936 ft | 209 kts | 137° |
| 2026-04-29 17:15 | 33.82772 | -118.20817 | 2711 ft | 205 kts | 137° |
| 2026-04-29 17:15 | 33.81758 | -118.19706 | 2480 ft | 189 kts | 137° |
| 2026-04-29 17:15 | 33.80808 | -118.18666 | 2249 ft | 181 kts | 137° |
| 2026-04-29 17:16 | 33.79887 | -118.17658 | 2019 ft | 177 kts | 137° |
| 2026-04-29 17:16 | 33.78997 | -118.16673 | 1997 ft | 174 kts | 137° |
| 2026-04-29 17:16 | 33.78122 | -118.15702 | 1997 ft | 164 kts | 137° |
| 2026-04-29 17:16 | 33.77316 | -118.14809 | 1990 ft | 151 kts | 137° |
| 2026-04-29 17:17 | 33.76549 | -118.13958 | 1879 ft | 151 kts | 137° |
| 2026-04-29 17:17 | 33.75978 | -118.12937 | 1716 ft | 151 kts | 98° |
| 2026-04-29 17:17 | 33.76265 | -118.11765 | 1537 ft | 148 kts | 62° |
| 2026-04-29 17:17 | 33.76893 | -118.10805 | 1310 ft | 151 kts | 33° |
| 2026-04-29 17:18 | 33.77829 | -118.10810 | 1133 ft | 130 kts | 340° |
| 2026-04-29 17:18 | 33.78567 | -118.11309 | 817 ft | 112 kts | 320° |
| 2026-04-29 17:18 | 33.79120 | -118.11926 | 601 ft | 108 kts | 314° |
| 2026-04-29 17:18 | 33.79640 | -118.12571 | 481 ft | 106 kts | 315° |
| 2026-04-29 17:19 | 33.80152 | -118.13188 | 328 ft | 102 kts | 315° |
| 2026-04-29 17:19 | 33.80625 | -118.13756 | 192 ft | 91 kts | 315° |
| 2026-04-29 17:19 | 33.81067 | -118.14275 | 67 ft | 87 kts | 315° |
| 2026-04-29 17:19 | 33.81461 | -118.14755 | 47 ft | 68 kts | 314° |
| 2026-04-29 17:20 | 33.81743 | -118.15093 | 50 ft | 43 kts | 315° |
| 2026-04-29 17:20 | 33.81854 | -118.15253 | 47 ft | 13 kts | 274° |
| 2026-04-29 17:20 | 33.81855 | -118.15345 | 47 ft | 9 kts | 271° |
| 2026-04-29 17:20 | 33.81856 | -118.15437 | 46 ft | 14 kts | 269° |
| 2026-04-29 17:21 | 33.81855 | -118.15532 | 42 ft | 8 kts | 269° |
| 2026-04-29 17:21 | 33.81839 | -118.15606 | 39 ft | 10 kts | 240° |
| 2026-04-29 17:21 | 33.81791 | -118.15668 | 38 ft | 10 kts | 227° |
| 2026-04-29 17:21 | 33.81775 | -118.15722 | 40 ft | 6 kts | 323° |
| 2026-04-29 17:22 | 33.81802 | -118.15732 | 41 ft | 4 kts | 331° |
| 2026-04-29 17:22 | 33.81822 | -118.15766 | 43 ft | 6 kts | 275° |
| 2026-04-29 17:22 | 33.81823 | -118.15816 | 45 ft | 6 kts | 269° |
| 2026-04-29 17:22 | 33.81847 | -118.15837 | 46 ft | 3 kts | 72° |
| 2026-04-29 17:23 | 33.81848 | -118.15830 | 46 ft | 0 kts | 88° |